sensor_id;sensor_type;location;lat;lon;timestamp;P1;durP1;ratioP1;P2;durP2;ratioP2
48006;SDS011;33771;48.180;11.400;2023-02-23T00:00:26;24.00;;;16.23;;
48006;SDS011;33771;48.180;11.400;2023-02-23T00:02:56;28.13;;;15.97;;
48006;SDS011;33771;48.180;11.400;2023-02-23T00:05:24;27.83;;;16.77;;
48006;SDS011;33771;48.180;11.400;2023-02-23T00:07:52;26.27;;;16.37;;
48006;SDS011;33771;48.180;11.400;2023-02-23T00:10:18;27.37;;;17.40;;
48006;SDS011;33771;48.180;11.400;2023-02-23T00:12:45;26.37;;;16.00;;
48006;SDS011;33771;48.180;11.400;2023-02-23T00:15:11;23.90;;;15.87;;
48006;SDS011;33771;48.180;11.400;2023-02-23T00:17:37;24.73;;;16.37;;
48006;SDS011;33771;48.180;11.400;2023-02-23T00:20:05;26.07;;;16.73;;
48006;SDS011;33771;48.180;11.400;2023-02-23T00:22:38;24.73;;;16.90;;
48006;SDS011;33771;48.180;11.400;2023-02-23T00:25:05;24.83;;;16.63;;
48006;SDS011;33771;48.180;11.400;2023-02-23T00:27:32;25.87;;;16.23;;
48006;SDS011;33771;48.180;11.400;2023-02-23T00:30:03;26.30;;;16.17;;
48006;SDS011;33771;48.180;11.400;2023-02-23T00:32:29;27.17;;;17.43;;
48006;SDS011;33771;48.180;11.400;2023-02-23T00:34:54;25.07;;;16.90;;
48006;SDS011;33771;48.180;11.400;2023-02-23T00:37:22;24.33;;;15.87;;
48006;SDS011;33771;48.180;11.400;2023-02-23T00:39:48;27.50;;;17.70;;
48006;SDS011;33771;48.180;11.400;2023-02-23T00:42:14;26.70;;;17.47;;
48006;SDS011;33771;48.180;11.400;2023-02-23T00:44:39;27.80;;;16.63;;
48006;SDS011;33771;48.180;11.400;2023-02-23T00:47:06;28.00;;;16.87;;
48006;SDS011;33771;48.180;11.400;2023-02-23T00:49:32;27.40;;;17.33;;
48006;SDS011;33771;48.180;11.400;2023-02-23T00:51:58;28.57;;;17.70;;
48006;SDS011;33771;48.180;11.400;2023-02-23T00:54:23;24.10;;;16.37;;
48006;SDS011;33771;48.180;11.400;2023-02-23T00:56:50;31.60;;;17.70;;
48006;SDS011;33771;48.180;11.400;2023-02-23T00:59:15;27.13;;;16.23;;
48006;SDS011;33771;48.180;11.400;2023-02-23T01:01:42;31.23;;;17.33;;
48006;SDS011;33771;48.180;11.400;2023-02-23T01:04:09;26.53;;;18.20;;
48006;SDS011;33771;48.180;11.400;2023-02-23T01:06:35;29.23;;;17.50;;
48006;SDS011;33771;48.180;11.400;2023-02-23T01:09:05;24.70;;;16.13;;
48006;SDS011;33771;48.180;11.400;2023-02-23T01:14:05;21.83;;;16.13;;
48006;SDS011;33771;48.180;11.400;2023-02-23T01:16:32;28.07;;;17.37;;
48006;SDS011;33771;48.180;11.400;2023-02-23T01:18:59;27.77;;;17.83;;
48006;SDS011;33771;48.180;11.400;2023-02-23T01:21:31;28.10;;;17.83;;
48006;SDS011;33771;48.180;11.400;2023-02-23T01:23:59;27.90;;;17.87;;
48006;SDS011;33771;48.180;11.400;2023-02-23T01:26:27;28.47;;;18.40;;
48006;SDS011;33771;48.180;11.400;2023-02-23T01:28:59;28.53;;;18.53;;
48006;SDS011;33771;48.180;11.400;2023-02-23T01:31:29;28.17;;;18.03;;
48006;SDS011;33771;48.180;11.400;2023-02-23T01:33:55;27.70;;;18.20;;
48006;SDS011;33771;48.180;11.400;2023-02-23T01:36:23;28.43;;;18.60;;
48006;SDS011;33771;48.180;11.400;2023-02-23T01:38:49;29.73;;;18.90;;
48006;SDS011;33771;48.180;11.400;2023-02-23T01:41:18;28.63;;;19.47;;
48006;SDS011;33771;48.180;11.400;2023-02-23T01:46:23;29.97;;;17.97;;
48006;SDS011;33771;48.180;11.400;2023-02-23T01:48:48;27.70;;;17.63;;
48006;SDS011;33771;48.180;11.400;2023-02-23T01:51:17;28.93;;;17.40;;
48006;SDS011;33771;48.180;11.400;2023-02-23T01:53:51;26.23;;;17.80;;
48006;SDS011;33771;48.180;11.400;2023-02-23T01:56:28;31.90;;;18.80;;
48006;SDS011;33771;48.180;11.400;2023-02-23T01:58:56;28.30;;;18.37;;
48006;SDS011;33771;48.180;11.400;2023-02-23T02:01:25;27.07;;;17.73;;
48006;SDS011;33771;48.180;11.400;2023-02-23T02:03:54;27.87;;;18.10;;
48006;SDS011;33771;48.180;11.400;2023-02-23T02:06:40;31.30;;;18.70;;
48006;SDS011;33771;48.180;11.400;2023-02-23T02:09:09;30.77;;;19.27;;
48006;SDS011;33771;48.180;11.400;2023-02-23T02:11:41;30.33;;;18.27;;
48006;SDS011;33771;48.180;11.400;2023-02-23T02:14:16;31.90;;;19.80;;
48006;SDS011;33771;48.180;11.400;2023-02-23T02:19:55;29.00;;;19.13;;
48006;SDS011;33771;48.180;11.400;2023-02-23T02:34:12;27.90;;;18.23;;
48006;SDS011;33771;48.180;11.400;2023-02-23T02:36:56;25.03;;;17.53;;
48006;SDS011;33771;48.180;11.400;2023-02-23T02:39:40;30.67;;;18.63;;
48006;SDS011;33771;48.180;11.400;2023-02-23T02:42:31;35.40;;;20.83;;
48006;SDS011;33771;48.180;11.400;2023-02-23T02:48:02;28.60;;;18.97;;
48006;SDS011;33771;48.180;11.400;2023-02-23T02:53:26;31.47;;;21.23;;
48006;SDS011;33771;48.180;11.400;2023-02-23T02:55:53;31.43;;;21.17;;
48006;SDS011;33771;48.180;11.400;2023-02-23T02:58:23;31.63;;;21.03;;
48006;SDS011;33771;48.180;11.400;2023-02-23T03:00:51;36.70;;;20.60;;
48006;SDS011;33771;48.180;11.400;2023-02-23T03:06:21;31.33;;;20.03;;
48006;SDS011;33771;48.180;11.400;2023-02-23T03:12:01;30.20;;;19.33;;
48006;SDS011;33771;48.180;11.400;2023-02-23T03:15:01;35.50;;;22.03;;
48006;SDS011;33771;48.180;11.400;2023-02-23T03:17:57;34.53;;;20.53;;
48006;SDS011;33771;48.180;11.400;2023-02-23T03:20:51;33.87;;;20.47;;
48006;SDS011;33771;48.180;11.400;2023-02-23T03:29:33;36.07;;;21.07;;
48006;SDS011;33771;48.180;11.400;2023-02-23T03:32:31;35.17;;;23.00;;
48006;SDS011;33771;48.180;11.400;2023-02-23T03:35:31;35.57;;;21.27;;
48006;SDS011;33771;48.180;11.400;2023-02-23T03:38:31;32.50;;;20.03;;
48006;SDS011;33771;48.180;11.400;2023-02-23T03:41:17;34.70;;;20.13;;
48006;SDS011;33771;48.180;11.400;2023-02-23T03:44:04;31.10;;;20.27;;
48006;SDS011;33771;48.180;11.400;2023-02-23T03:46:55;30.83;;;19.73;;
48006;SDS011;33771;48.180;11.400;2023-02-23T03:49:41;37.00;;;20.80;;
48006;SDS011;33771;48.180;11.400;2023-02-23T03:52:27;33.77;;;19.93;;
48006;SDS011;33771;48.180;11.400;2023-02-23T03:55:17;31.17;;;20.60;;
48006;SDS011;33771;48.180;11.400;2023-02-23T03:58:07;38.67;;;22.43;;
48006;SDS011;33771;48.180;11.400;2023-02-23T04:00:57;35.27;;;20.37;;
48006;SDS011;33771;48.180;11.400;2023-02-23T04:03:45;32.30;;;20.83;;
48006;SDS011;33771;48.180;11.400;2023-02-23T04:06:33;34.63;;;21.33;;
48006;SDS011;33771;48.180;11.400;2023-02-23T04:09:22;32.77;;;21.70;;
48006;SDS011;33771;48.180;11.400;2023-02-23T04:12:08;33.73;;;21.43;;
48006;SDS011;33771;48.180;11.400;2023-02-23T04:15:06;34.47;;;21.70;;
48006;SDS011;33771;48.180;11.400;2023-02-23T04:17:36;36.33;;;21.97;;
48006;SDS011;33771;48.180;11.400;2023-02-23T04:20:03;34.87;;;22.23;;
48006;SDS011;33771;48.180;11.400;2023-02-23T04:22:30;35.97;;;22.00;;
48006;SDS011;33771;48.180;11.400;2023-02-23T04:24:56;38.67;;;22.93;;
48006;SDS011;33771;48.180;11.400;2023-02-23T04:27:22;34.00;;;22.70;;
48006;SDS011;33771;48.180;11.400;2023-02-23T04:29:47;35.63;;;21.70;;
48006;SDS011;33771;48.180;11.400;2023-02-23T04:32:14;35.50;;;21.33;;
48006;SDS011;33771;48.180;11.400;2023-02-23T04:34:42;34.73;;;21.03;;
48006;SDS011;33771;48.180;11.400;2023-02-23T04:37:09;36.20;;;21.40;;
48006;SDS011;33771;48.180;11.400;2023-02-23T04:39:36;36.17;;;22.43;;
48006;SDS011;33771;48.180;11.400;2023-02-23T04:42:01;32.80;;;21.53;;
48006;SDS011;33771;48.180;11.400;2023-02-23T04:44:27;34.37;;;22.00;;
48006;SDS011;33771;48.180;11.400;2023-02-23T04:46:53;34.53;;;22.00;;
48006;SDS011;33771;48.180;11.400;2023-02-23T04:49:19;37.70;;;20.67;;
48006;SDS011;33771;48.180;11.400;2023-02-23T04:51:45;36.40;;;21.57;;
48006;SDS011;33771;48.180;11.400;2023-02-23T04:54:11;32.13;;;20.17;;
48006;SDS011;33771;48.180;11.400;2023-02-23T04:56:37;33.40;;;20.77;;
48006;SDS011;33771;48.180;11.400;2023-02-23T04:59:03;35.77;;;21.03;;
48006;SDS011;33771;48.180;11.400;2023-02-23T05:01:29;31.77;;;21.00;;
48006;SDS011;33771;48.180;11.400;2023-02-23T05:03:56;35.93;;;21.77;;
48006;SDS011;33771;48.180;11.400;2023-02-23T05:06:22;35.27;;;21.77;;
48006;SDS011;33771;48.180;11.400;2023-02-23T05:08:47;34.43;;;22.63;;
48006;SDS011;33771;48.180;11.400;2023-02-23T05:11:13;38.10;;;24.27;;
48006;SDS011;33771;48.180;11.400;2023-02-23T05:13:39;36.70;;;22.60;;
48006;SDS011;33771;48.180;11.400;2023-02-23T05:16:04;40.80;;;24.60;;
48006;SDS011;33771;48.180;11.400;2023-02-23T05:18:30;43.40;;;24.90;;
48006;SDS011;33771;48.180;11.400;2023-02-23T05:21:03;40.53;;;26.03;;
48006;SDS011;33771;48.180;11.400;2023-02-23T05:23:31;38.65;;;25.10;;
48006;SDS011;33771;48.180;11.400;2023-02-23T05:26:06;41.97;;;25.70;;
48006;SDS011;33771;48.180;11.400;2023-02-23T05:28:34;40.20;;;23.88;;
48006;SDS011;33771;48.180;11.400;2023-02-23T05:31:01;35.97;;;22.87;;
48006;SDS011;33771;48.180;11.400;2023-02-23T05:33:27;36.13;;;22.23;;
48006;SDS011;33771;48.180;11.400;2023-02-23T05:35:54;37.97;;;22.97;;
48006;SDS011;33771;48.180;11.400;2023-02-23T05:38:19;38.93;;;21.77;;
48006;SDS011;33771;48.180;11.400;2023-02-23T05:40:46;39.07;;;22.83;;
48006;SDS011;33771;48.180;11.400;2023-02-23T05:43:11;38.63;;;23.43;;
48006;SDS011;33771;48.180;11.400;2023-02-23T05:45:40;38.00;;;23.77;;
48006;SDS011;33771;48.180;11.400;2023-02-23T05:48:07;39.40;;;24.73;;
48006;SDS011;33771;48.180;11.400;2023-02-23T05:50:33;34.97;;;22.77;;
48006;SDS011;33771;48.180;11.400;2023-02-23T05:53:04;35.77;;;23.90;;
48006;SDS011;33771;48.180;11.400;2023-02-23T05:55:29;38.23;;;23.07;;
48006;SDS011;33771;48.180;11.400;2023-02-23T05:57:55;34.53;;;21.63;;
48006;SDS011;33771;48.180;11.400;2023-02-23T06:00:21;31.73;;;21.07;;
48006;SDS011;33771;48.180;11.400;2023-02-23T06:02:47;34.57;;;20.93;;
48006;SDS011;33771;48.180;11.400;2023-02-23T06:05:14;39.00;;;22.17;;
48006;SDS011;33771;48.180;11.400;2023-02-23T06:07:39;33.97;;;21.63;;
48006;SDS011;33771;48.180;11.400;2023-02-23T06:10:05;34.17;;;20.60;;
48006;SDS011;33771;48.180;11.400;2023-02-23T06:12:31;33.90;;;20.67;;
48006;SDS011;33771;48.180;11.400;2023-02-23T06:14:57;35.87;;;21.87;;
48006;SDS011;33771;48.180;11.400;2023-02-23T06:17:23;33.77;;;21.90;;
48006;SDS011;33771;48.180;11.400;2023-02-23T06:19:48;32.20;;;21.37;;
48006;SDS011;33771;48.180;11.400;2023-02-23T06:22:14;31.83;;;20.37;;
48006;SDS011;33771;48.180;11.400;2023-02-23T06:24:41;28.33;;;19.97;;
48006;SDS011;33771;48.180;11.400;2023-02-23T06:27:07;30.30;;;19.20;;
48006;SDS011;33771;48.180;11.400;2023-02-23T06:29:33;32.07;;;20.47;;
48006;SDS011;33771;48.180;11.400;2023-02-23T06:32:01;31.33;;;19.87;;
48006;SDS011;33771;48.180;11.400;2023-02-23T06:34:27;33.67;;;20.43;;
48006;SDS011;33771;48.180;11.400;2023-02-23T06:36:53;31.50;;;19.63;;
48006;SDS011;33771;48.180;11.400;2023-02-23T06:39:18;30.87;;;20.20;;
48006;SDS011;33771;48.180;11.400;2023-02-23T06:41:44;37.97;;;21.37;;
48006;SDS011;33771;48.180;11.400;2023-02-23T06:44:09;34.77;;;21.53;;
48006;SDS011;33771;48.180;11.400;2023-02-23T06:46:35;38.03;;;21.53;;
48006;SDS011;33771;48.180;11.400;2023-02-23T06:49:01;34.63;;;22.00;;
48006;SDS011;33771;48.180;11.400;2023-02-23T06:51:27;36.70;;;20.47;;
48006;SDS011;33771;48.180;11.400;2023-02-23T06:53:53;32.27;;;20.03;;
48006;SDS011;33771;48.180;11.400;2023-02-23T06:56:19;31.07;;;20.80;;
48006;SDS011;33771;48.180;11.400;2023-02-23T06:58:45;35.23;;;22.33;;
48006;SDS011;33771;48.180;11.400;2023-02-23T07:01:11;32.00;;;21.30;;
48006;SDS011;33771;48.180;11.400;2023-02-23T07:03:37;29.73;;;20.03;;
48006;SDS011;33771;48.180;11.400;2023-02-23T07:06:03;31.83;;;19.93;;
48006;SDS011;33771;48.180;11.400;2023-02-23T07:08:29;37.90;;;21.93;;
48006;SDS011;33771;48.180;11.400;2023-02-23T07:11:32;32.37;;;19.97;;
48006;SDS011;33771;48.180;11.400;2023-02-23T07:13:50;34.87;;;20.77;;
48006;SDS011;33771;48.180;11.400;2023-02-23T07:16:16;34.33;;;20.40;;
48006;SDS011;33771;48.180;11.400;2023-02-23T07:18:41;32.23;;;21.23;;
48006;SDS011;33771;48.180;11.400;2023-02-23T07:21:07;33.87;;;21.30;;
48006;SDS011;33771;48.180;11.400;2023-02-23T07:23:32;33.70;;;21.50;;
48006;SDS011;33771;48.180;11.400;2023-02-23T07:25:58;33.50;;;21.63;;
48006;SDS011;33771;48.180;11.400;2023-02-23T07:28:25;31.83;;;20.40;;
48006;SDS011;33771;48.180;11.400;2023-02-23T07:30:56;33.57;;;20.00;;
48006;SDS011;33771;48.180;11.400;2023-02-23T07:33:25;30.60;;;20.90;;
48006;SDS011;33771;48.180;11.400;2023-02-23T07:35:51;34.13;;;20.00;;
48006;SDS011;33771;48.180;11.400;2023-02-23T07:38:17;35.20;;;19.40;;
48006;SDS011;33771;48.180;11.400;2023-02-23T07:40:43;38.17;;;20.53;;
48006;SDS011;33771;48.180;11.400;2023-02-23T07:43:08;32.03;;;20.43;;
48006;SDS011;33771;48.180;11.400;2023-02-23T07:45:34;37.00;;;21.50;;
48006;SDS011;33771;48.180;11.400;2023-02-23T07:48:00;34.20;;;20.90;;
48006;SDS011;33771;48.180;11.400;2023-02-23T07:50:26;33.37;;;20.30;;
48006;SDS011;33771;48.180;11.400;2023-02-23T07:52:51;32.30;;;20.07;;
48006;SDS011;33771;48.180;11.400;2023-02-23T07:55:17;31.67;;;20.93;;
48006;SDS011;33771;48.180;11.400;2023-02-23T07:57:42;31.07;;;20.80;;
48006;SDS011;33771;48.180;11.400;2023-02-23T08:00:09;34.13;;;21.40;;
48006;SDS011;33771;48.180;11.400;2023-02-23T08:02:35;33.97;;;21.63;;
48006;SDS011;33771;48.180;11.400;2023-02-23T08:05:01;33.90;;;21.30;;
48006;SDS011;33771;48.180;11.400;2023-02-23T08:07:27;30.80;;;20.40;;
48006;SDS011;33771;48.180;11.400;2023-02-23T08:09:55;37.23;;;22.00;;
48006;SDS011;33771;48.180;11.400;2023-02-23T08:12:21;36.60;;;21.23;;
48006;SDS011;33771;48.180;11.400;2023-02-23T08:14:47;31.17;;;20.60;;
48006;SDS011;33771;48.180;11.400;2023-02-23T08:17:12;33.20;;;19.90;;
48006;SDS011;33771;48.180;11.400;2023-02-23T08:19:38;33.33;;;19.53;;
48006;SDS011;33771;48.180;11.400;2023-02-23T08:22:04;32.67;;;20.63;;
48006;SDS011;33771;48.180;11.400;2023-02-23T08:24:30;29.83;;;19.27;;
48006;SDS011;33771;48.180;11.400;2023-02-23T08:26:56;32.43;;;20.10;;
48006;SDS011;33771;48.180;11.400;2023-02-23T08:29:22;28.93;;;20.10;;
48006;SDS011;33771;48.180;11.400;2023-02-23T08:31:48;30.87;;;19.57;;
48006;SDS011;33771;48.180;11.400;2023-02-23T08:34:15;30.40;;;19.83;;
48006;SDS011;33771;48.180;11.400;2023-02-23T08:36:41;31.20;;;19.23;;
48006;SDS011;33771;48.180;11.400;2023-02-23T08:39:09;30.17;;;19.77;;
48006;SDS011;33771;48.180;11.400;2023-02-23T08:41:36;29.63;;;18.83;;
48006;SDS011;33771;48.180;11.400;2023-02-23T08:44:02;28.13;;;18.43;;
48006;SDS011;33771;48.180;11.400;2023-02-23T08:46:27;28.07;;;18.70;;
48006;SDS011;33771;48.180;11.400;2023-02-23T08:48:54;27.43;;;18.83;;
48006;SDS011;33771;48.180;11.400;2023-02-23T08:51:20;27.53;;;18.63;;
48006;SDS011;33771;48.180;11.400;2023-02-23T08:53:45;28.80;;;17.90;;
48006;SDS011;33771;48.180;11.400;2023-02-23T08:56:11;32.00;;;18.80;;
48006;SDS011;33771;48.180;11.400;2023-02-23T08:58:37;28.50;;;18.57;;
48006;SDS011;33771;48.180;11.400;2023-02-23T09:01:03;33.80;;;19.20;;
48006;SDS011;33771;48.180;11.400;2023-02-23T09:03:30;25.80;;;17.43;;
48006;SDS011;33771;48.180;11.400;2023-02-23T09:06:06;25.53;;;17.83;;
48006;SDS011;33771;48.180;11.400;2023-02-23T09:08:37;26.80;;;16.43;;
48006;SDS011;33771;48.180;11.400;2023-02-23T09:11:03;28.10;;;17.77;;
48006;SDS011;33771;48.180;11.400;2023-02-23T09:13:31;25.20;;;16.50;;
48006;SDS011;33771;48.180;11.400;2023-02-23T09:15:57;28.97;;;16.50;;
48006;SDS011;33771;48.180;11.400;2023-02-23T09:18:22;26.07;;;16.10;;
48006;SDS011;33771;48.180;11.400;2023-02-23T09:20:51;25.83;;;16.27;;
48006;SDS011;33771;48.180;11.400;2023-02-23T09:23:17;25.23;;;16.03;;
48006;SDS011;33771;48.180;11.400;2023-02-23T09:25:44;22.43;;;14.47;;
48006;SDS011;33771;48.180;11.400;2023-02-23T09:28:11;24.53;;;14.97;;
48006;SDS011;33771;48.180;11.400;2023-02-23T09:30:39;26.20;;;15.23;;
48006;SDS011;33771;48.180;11.400;2023-02-23T09:33:05;21.03;;;14.20;;
48006;SDS011;33771;48.180;11.400;2023-02-23T09:35:31;19.37;;;14.07;;
48006;SDS011;33771;48.180;11.400;2023-02-23T09:37:58;18.13;;;13.07;;
48006;SDS011;33771;48.180;11.400;2023-02-23T09:40:25;21.63;;;13.53;;
48006;SDS011;33771;48.180;11.400;2023-02-23T09:48:54;21.50;;;13.30;;
48006;SDS011;33771;48.180;11.400;2023-02-23T09:51:22;19.13;;;10.90;;
48006;SDS011;33771;48.180;11.400;2023-02-23T09:53:55;18.00;;;11.60;;
48006;SDS011;33771;48.180;11.400;2023-02-23T09:56:29;16.53;;;10.87;;
48006;SDS011;33771;48.180;11.400;2023-02-23T09:59:01;17.07;;;11.57;;
48006;SDS011;33771;48.180;11.400;2023-02-23T10:03:59;14.77;;;10.40;;
48006;SDS011;33771;48.180;11.400;2023-02-23T10:06:40;14.33;;;10.17;;
48006;SDS011;33771;48.180;11.400;2023-02-23T10:12:10;19.60;;;10.83;;
48006;SDS011;33771;48.180;11.400;2023-02-23T10:23:02;16.65;;;11.30;;
48006;SDS011;33771;48.180;11.400;2023-02-23T10:25:33;16.20;;;11.10;;
48006;SDS011;33771;48.180;11.400;2023-02-23T10:28:02;15.33;;;10.60;;
48006;SDS011;33771;48.180;11.400;2023-02-23T10:30:29;14.73;;;10.37;;
48006;SDS011;33771;48.180;11.400;2023-02-23T10:35:29;17.70;;;10.87;;
48006;SDS011;33771;48.180;11.400;2023-02-23T10:37:56;16.70;;;11.07;;
48006;SDS011;33771;48.180;11.400;2023-02-23T10:40:24;17.83;;;11.30;;
48006;SDS011;33771;48.180;11.400;2023-02-23T10:42:52;16.38;;;11.70;;
48006;SDS011;33771;48.180;11.400;2023-02-23T10:45:20;17.47;;;11.70;;
48006;SDS011;33771;48.180;11.400;2023-02-23T10:47:51;18.87;;;11.07;;
48006;SDS011;33771;48.180;11.400;2023-02-23T10:50:21;18.97;;;11.07;;
48006;SDS011;33771;48.180;11.400;2023-02-23T10:52:50;18.27;;;10.57;;
48006;SDS011;33771;48.180;11.400;2023-02-23T10:55:20;15.25;;;11.07;;
48006;SDS011;33771;48.180;11.400;2023-02-23T10:58:02;16.37;;;10.57;;
48006;SDS011;33771;48.180;11.400;2023-02-23T11:00:58;22.43;;;10.63;;
48006;SDS011;33771;48.180;11.400;2023-02-23T11:03:30;17.52;;;11.45;;
48006;SDS011;33771;48.180;11.400;2023-02-23T11:05:58;15.07;;;10.33;;
48006;SDS011;33771;48.180;11.400;2023-02-23T11:08:25;16.00;;;11.25;;
48006;SDS011;33771;48.180;11.400;2023-02-23T11:13:39;15.63;;;11.55;;
48006;SDS011;33771;48.180;11.400;2023-02-23T11:18:41;16.55;;;10.27;;
48006;SDS011;33771;48.180;11.400;2023-02-23T11:21:16;19.42;;;11.15;;
48006;SDS011;33771;48.180;11.400;2023-02-23T11:23:47;14.60;;;10.43;;
48006;SDS011;33771;48.180;11.400;2023-02-23T11:26:57;15.55;;;10.15;;
48006;SDS011;33771;48.180;11.400;2023-02-23T11:29:13;14.30;;;9.83;;
48006;SDS011;33771;48.180;11.400;2023-02-23T11:32:02;14.27;;;9.23;;
48006;SDS011;33771;48.180;11.400;2023-02-23T11:35:11;11.82;;;8.48;;
48006;SDS011;33771;48.180;11.400;2023-02-23T11:37:51;10.55;;;6.65;;
48006;SDS011;33771;48.180;11.400;2023-02-23T11:40:27;8.75;;;6.05;;
48006;SDS011;33771;48.180;11.400;2023-02-23T11:43:16;10.10;;;5.80;;
48006;SDS011;33771;48.180;11.400;2023-02-23T11:45:45;11.73;;;5.50;;
48006;SDS011;33771;48.180;11.400;2023-02-23T11:48:32;9.55;;;5.78;;
48006;SDS011;33771;48.180;11.400;2023-02-23T11:51:00;8.13;;;5.87;;
48006;SDS011;33771;48.180;11.400;2023-02-23T11:53:44;10.70;;;5.20;;
48006;SDS011;33771;48.180;11.400;2023-02-23T11:56:11;8.80;;;5.88;;
48006;SDS011;33771;48.180;11.400;2023-02-23T11:58:48;7.00;;;5.53;;
48006;SDS011;33771;48.180;11.400;2023-02-23T12:01:20;13.57;;;6.38;;
48006;SDS011;33771;48.180;11.400;2023-02-23T12:04:08;9.82;;;6.20;;
48006;SDS011;33771;48.180;11.400;2023-02-23T12:06:48;9.40;;;6.47;;
48006;SDS011;33771;48.180;11.400;2023-02-23T12:11:42;8.45;;;5.70;;
48006;SDS011;33771;48.180;11.400;2023-02-23T12:16:58;12.48;;;6.57;;
48006;SDS011;33771;48.180;11.400;2023-02-23T12:19:35;9.32;;;6.20;;
48006;SDS011;33771;48.180;11.400;2023-02-23T12:22:09;11.98;;;6.05;;
48006;SDS011;33771;48.180;11.400;2023-02-23T12:25:13;8.25;;;5.70;;
48006;SDS011;33771;48.180;11.400;2023-02-23T12:33:17;9.07;;;5.57;;
48006;SDS011;33771;48.180;11.400;2023-02-23T12:36:03;5.82;;;4.15;;
48006;SDS011;33771;48.180;11.400;2023-02-23T12:38:45;10.07;;;4.57;;
48006;SDS011;33771;48.180;11.400;2023-02-23T12:42:16;8.85;;;4.00;;
48006;SDS011;33771;48.180;11.400;2023-02-23T12:50:50;4.03;;;2.80;;
48006;SDS011;33771;48.180;11.400;2023-02-23T12:53:19;5.82;;;3.20;;
48006;SDS011;33771;48.180;11.400;2023-02-23T12:59:13;5.00;;;3.20;;
48006;SDS011;33771;48.180;11.400;2023-02-23T13:01:59;5.28;;;2.42;;
48006;SDS011;33771;48.180;11.400;2023-02-23T13:04:59;3.80;;;2.50;;
48006;SDS011;33771;48.180;11.400;2023-02-23T13:18:48;3.92;;;2.92;;
48006;SDS011;33771;48.180;11.400;2023-02-23T13:32:15;6.18;;;3.38;;
48006;SDS011;33771;48.180;11.400;2023-02-23T13:34:49;5.82;;;3.58;;
48006;SDS011;33771;48.180;11.400;2023-02-23T13:37:21;4.88;;;3.70;;
48006;SDS011;33771;48.180;11.400;2023-02-23T13:40:02;7.20;;;3.85;;
48006;SDS011;33771;48.180;11.400;2023-02-23T13:42:45;8.75;;;4.10;;
48006;SDS011;33771;48.180;11.400;2023-02-23T13:45:42;7.28;;;3.65;;
48006;SDS011;33771;48.180;11.400;2023-02-23T13:56:26;7.03;;;3.90;;
48006;SDS011;33771;48.180;11.400;2023-02-23T13:59:06;5.93;;;3.50;;
48006;SDS011;33771;48.180;11.400;2023-02-23T14:01:42;6.38;;;3.63;;
48006;SDS011;33771;48.180;11.400;2023-02-23T14:04:19;6.20;;;4.13;;
48006;SDS011;33771;48.180;11.400;2023-02-23T14:06:59;6.53;;;3.75;;
48006;SDS011;33771;48.180;11.400;2023-02-23T14:10:13;7.70;;;4.20;;
48006;SDS011;33771;48.180;11.400;2023-02-23T14:12:34;8.25;;;4.43;;
48006;SDS011;33771;48.180;11.400;2023-02-23T14:20:35;8.35;;;4.20;;
48006;SDS011;33771;48.180;11.400;2023-02-23T14:44:29;7.68;;;4.43;;
48006;SDS011;33771;48.180;11.400;2023-02-23T14:47:08;7.13;;;4.13;;
48006;SDS011;33771;48.180;11.400;2023-02-23T14:49:41;7.43;;;4.32;;
48006;SDS011;33771;48.180;11.400;2023-02-23T14:52:23;7.00;;;4.10;;
48006;SDS011;33771;48.180;11.400;2023-02-23T14:55:13;7.45;;;4.68;;
48006;SDS011;33771;48.180;11.400;2023-02-23T14:57:45;8.32;;;4.63;;
48006;SDS011;33771;48.180;11.400;2023-02-23T15:02:39;8.20;;;4.90;;
48006;SDS011;33771;48.180;11.400;2023-02-23T15:05:17;8.50;;;4.55;;
48006;SDS011;33771;48.180;11.400;2023-02-23T15:07:46;7.32;;;5.05;;
48006;SDS011;33771;48.180;11.400;2023-02-23T15:10:27;9.38;;;4.63;;
48006;SDS011;33771;48.180;11.400;2023-02-23T15:13:00;8.27;;;5.43;;
48006;SDS011;33771;48.180;11.400;2023-02-23T15:15:33;10.18;;;5.63;;
48006;SDS011;33771;48.180;11.400;2023-02-23T15:18:00;10.07;;;4.95;;
48006;SDS011;33771;48.180;11.400;2023-02-23T15:20:31;7.93;;;4.50;;
48006;SDS011;33771;48.180;11.400;2023-02-23T15:23:01;12.07;;;5.78;;
48006;SDS011;33771;48.180;11.400;2023-02-23T15:25:33;9.25;;;5.78;;
48006;SDS011;33771;48.180;11.400;2023-02-23T15:28:21;10.05;;;4.78;;
48006;SDS011;33771;48.180;11.400;2023-02-23T15:30:48;7.38;;;4.80;;
48006;SDS011;33771;48.180;11.400;2023-02-23T15:33:15;8.75;;;4.85;;
48006;SDS011;33771;48.180;11.400;2023-02-23T15:38:34;9.70;;;3.90;;
48006;SDS011;33771;48.180;11.400;2023-02-23T15:41:06;9.35;;;4.68;;
48006;SDS011;33771;48.180;11.400;2023-02-23T15:43:39;6.32;;;4.10;;
48006;SDS011;33771;48.180;11.400;2023-02-23T15:46:06;5.30;;;3.72;;
48006;SDS011;33771;48.180;11.400;2023-02-23T15:51:05;12.13;;;4.82;;
48006;SDS011;33771;48.180;11.400;2023-02-23T15:53:36;9.65;;;4.30;;
48006;SDS011;33771;48.180;11.400;2023-02-23T15:58:41;8.80;;;3.95;;
48006;SDS011;33771;48.180;11.400;2023-02-23T16:01:46;10.20;;;4.25;;
48006;SDS011;33771;48.180;11.400;2023-02-23T16:04:15;10.25;;;4.25;;
48006;SDS011;33771;48.180;11.400;2023-02-23T16:06:50;8.23;;;4.60;;
48006;SDS011;33771;48.180;11.400;2023-02-23T16:11:51;9.57;;;4.70;;
48006;SDS011;33771;48.180;11.400;2023-02-23T16:14:19;7.63;;;4.30;;
48006;SDS011;33771;48.180;11.400;2023-02-23T16:16:46;10.18;;;4.93;;
48006;SDS011;33771;48.180;11.400;2023-02-23T16:19:14;9.82;;;4.80;;
48006;SDS011;33771;48.180;11.400;2023-02-23T16:21:45;12.18;;;4.85;;
48006;SDS011;33771;48.180;11.400;2023-02-23T16:24:17;8.95;;;5.22;;
48006;SDS011;33771;48.180;11.400;2023-02-23T16:26:56;13.15;;;4.78;;
48006;SDS011;33771;48.180;11.400;2023-02-23T16:29:32;8.70;;;4.67;;
48006;SDS011;33771;48.180;11.400;2023-02-23T16:32:09;7.10;;;4.87;;
48006;SDS011;33771;48.180;11.400;2023-02-23T16:34:44;10.02;;;4.85;;
48006;SDS011;33771;48.180;11.400;2023-02-23T16:37:19;13.60;;;5.20;;
48006;SDS011;33771;48.180;11.400;2023-02-23T16:39:50;8.65;;;5.60;;
48006;SDS011;33771;48.180;11.400;2023-02-23T16:44:58;12.47;;;6.20;;
48006;SDS011;33771;48.180;11.400;2023-02-23T16:50:23;10.60;;;5.40;;
48006;SDS011;33771;48.180;11.400;2023-02-23T16:52:49;12.90;;;5.37;;
48006;SDS011;33771;48.180;11.400;2023-02-23T16:55:17;14.83;;;6.07;;
48006;SDS011;33771;48.180;11.400;2023-02-23T16:57:50;14.77;;;5.70;;
48006;SDS011;33771;48.180;11.400;2023-02-23T17:00:20;10.40;;;5.13;;
48006;SDS011;33771;48.180;11.400;2023-02-23T17:02:54;12.73;;;5.83;;
48006;SDS011;33771;48.180;11.400;2023-02-23T17:05:22;10.10;;;5.03;;
48006;SDS011;33771;48.180;11.400;2023-02-23T17:07:48;11.13;;;5.50;;
48006;SDS011;33771;48.180;11.400;2023-02-23T17:10:16;12.50;;;4.80;;
48006;SDS011;33771;48.180;11.400;2023-02-23T17:13:03;12.47;;;4.80;;
48006;SDS011;33771;48.180;11.400;2023-02-23T17:15:33;11.00;;;3.83;;
48006;SDS011;33771;48.180;11.400;2023-02-23T17:18:00;7.77;;;4.40;;
48006;SDS011;33771;48.180;11.400;2023-02-23T17:20:26;14.03;;;4.80;;